sensor_id;sensor_type;location;lat;lon;timestamp;P1;durP1;ratioP1;P2;durP2;ratioP2
67092;SDS011;54011;50.772;7.730;2022-12-07T00:01:41;30.00;;;13.68;;
67092;SDS011;54011;50.772;7.730;2022-12-07T00:04:08;29.85;;;15.63;;
67092;SDS011;54011;50.772;7.730;2022-12-07T00:06:40;19.80;;;9.63;;
67092;SDS011;54011;50.772;7.730;2022-12-07T00:09:09;32.95;;;14.55;;
67092;SDS011;54011;50.772;7.730;2022-12-07T00:11:37;9.20;;;4.60;;
67092;SDS011;54011;50.772;7.730;2022-12-07T00:14:05;27.30;;;13.90;;
67092;SDS011;54011;50.772;7.730;2022-12-07T00:16:33;30.55;;;15.55;;
67092;SDS011;54011;50.772;7.730;2022-12-07T00:18:59;33.83;;;14.82;;
67092;SDS011;54011;50.772;7.730;2022-12-07T00:21:28;21.70;;;9.93;;
67092;SDS011;54011;50.772;7.730;2022-12-07T00:24:13;31.40;;;14.65;;
67092;SDS011;54011;50.772;7.730;2022-12-07T00:26:39;33.97;;;14.48;;
67092;SDS011;54011;50.772;7.730;2022-12-07T00:29:15;34.47;;;14.98;;
67092;SDS011;54011;50.772;7.730;2022-12-07T00:31:46;35.45;;;16.00;;
67092;SDS011;54011;50.772;7.730;2022-12-07T00:34:13;29.48;;;13.75;;
67092;SDS011;54011;50.772;7.730;2022-12-07T00:36:40;26.55;;;12.35;;
67092;SDS011;54011;50.772;7.730;2022-12-07T00:39:05;33.95;;;15.98;;
67092;SDS011;54011;50.772;7.730;2022-12-07T00:41:31;32.20;;;14.73;;
67092;SDS011;54011;50.772;7.730;2022-12-07T00:43:59;24.15;;;11.63;;
67092;SDS011;54011;50.772;7.730;2022-12-07T00:46:25;32.63;;;13.88;;
67092;SDS011;54011;50.772;7.730;2022-12-07T00:48:52;22.35;;;10.68;;
67092;SDS011;54011;50.772;7.730;2022-12-07T00:51:19;23.30;;;11.25;;
67092;SDS011;54011;50.772;7.730;2022-12-07T00:53:45;37.15;;;16.42;;
67092;SDS011;54011;50.772;7.730;2022-12-07T00:56:12;26.40;;;12.40;;
67092;SDS011;54011;50.772;7.730;2022-12-07T00:58:39;17.40;;;8.35;;
67092;SDS011;54011;50.772;7.730;2022-12-07T01:01:07;35.33;;;15.65;;
67092;SDS011;54011;50.772;7.730;2022-12-07T01:03:33;32.80;;;14.60;;
67092;SDS011;54011;50.772;7.730;2022-12-07T01:05:59;33.13;;;13.55;;
67092;SDS011;54011;50.772;7.730;2022-12-07T01:08:27;18.35;;;8.93;;
67092;SDS011;54011;50.772;7.730;2022-12-07T01:13:36;38.67;;;15.93;;
67092;SDS011;54011;50.772;7.730;2022-12-07T01:16:02;32.45;;;13.40;;
67092;SDS011;54011;50.772;7.730;2022-12-07T01:18:30;34.30;;;14.07;;
67092;SDS011;54011;50.772;7.730;2022-12-07T01:21:09;40.00;;;17.55;;
67092;SDS011;54011;50.772;7.730;2022-12-07T01:23:37;47.40;;;18.73;;
67092;SDS011;54011;50.772;7.730;2022-12-07T01:26:10;34.15;;;14.95;;
67092;SDS011;54011;50.772;7.730;2022-12-07T01:28:37;51.38;;;17.65;;
67092;SDS011;54011;50.772;7.730;2022-12-07T01:33:30;39.90;;;17.50;;
67092;SDS011;54011;50.772;7.730;2022-12-07T01:36:03;46.17;;;17.42;;
67092;SDS011;54011;50.772;7.730;2022-12-07T01:38:30;12.00;;;6.40;;
67092;SDS011;54011;50.772;7.730;2022-12-07T01:40:57;49.20;;;18.50;;
67092;SDS011;54011;50.772;7.730;2022-12-07T01:43:23;26.67;;;12.98;;
67092;SDS011;54011;50.772;7.730;2022-12-07T01:45:51;33.85;;;15.70;;
67092;SDS011;54011;50.772;7.730;2022-12-07T01:48:17;22.05;;;10.05;;
67092;SDS011;54011;50.772;7.730;2022-12-07T01:50:46;45.60;;;18.58;;
67092;SDS011;54011;50.772;7.730;2022-12-07T01:53:13;49.25;;;20.48;;
67092;SDS011;54011;50.772;7.730;2022-12-07T01:55:41;46.88;;;17.85;;
67092;SDS011;54011;50.772;7.730;2022-12-07T01:58:09;72.97;;;18.25;;
67092;SDS011;54011;50.772;7.730;2022-12-07T02:00:36;40.65;;;14.63;;
67092;SDS011;54011;50.772;7.730;2022-12-07T02:03:17;79.20;;;21.83;;
67092;SDS011;54011;50.772;7.730;2022-12-07T02:05:47;58.45;;;20.88;;
67092;SDS011;54011;50.772;7.730;2022-12-07T02:08:14;58.22;;;20.65;;
67092;SDS011;54011;50.772;7.730;2022-12-07T02:10:39;66.82;;;22.88;;
67092;SDS011;54011;50.772;7.730;2022-12-07T02:13:19;56.95;;;18.77;;
67092;SDS011;54011;50.772;7.730;2022-12-07T02:18:44;153.93;;;25.48;;
67092;SDS011;54011;50.772;7.730;2022-12-07T02:30:03;46.63;;;17.30;;
67092;SDS011;54011;50.772;7.730;2022-12-07T02:35:06;44.13;;;17.40;;
67092;SDS011;54011;50.772;7.730;2022-12-07T02:37:39;40.20;;;16.42;;
67092;SDS011;54011;50.772;7.730;2022-12-07T02:40:22;26.23;;;11.60;;
67092;SDS011;54011;50.772;7.730;2022-12-07T02:42:57;46.97;;;18.05;;
67092;SDS011;54011;50.772;7.730;2022-12-07T02:45:32;41.70;;;18.10;;
67092;SDS011;54011;50.772;7.730;2022-12-07T02:48:00;62.58;;;24.98;;
67092;SDS011;54011;50.772;7.730;2022-12-07T02:50:49;16.00;;;7.63;;
67092;SDS011;54011;50.772;7.730;2022-12-07T02:53:35;26.02;;;12.57;;
67092;SDS011;54011;50.772;7.730;2022-12-07T02:56:06;54.55;;;20.30;;
67092;SDS011;54011;50.772;7.730;2022-12-07T03:04:24;56.47;;;23.08;;
67092;SDS011;54011;50.772;7.730;2022-12-07T03:07:21;43.40;;;17.98;;
67092;SDS011;54011;50.772;7.730;2022-12-07T03:18:46;54.90;;;22.15;;
67092;SDS011;54011;50.772;7.730;2022-12-07T03:21:14;57.03;;;21.92;;
67092;SDS011;54011;50.772;7.730;2022-12-07T03:23:44;54.35;;;21.58;;
67092;SDS011;54011;50.772;7.730;2022-12-07T03:26:15;54.15;;;21.92;;
67092;SDS011;54011;50.772;7.730;2022-12-07T03:28:46;31.02;;;13.40;;
67092;SDS011;54011;50.772;7.730;2022-12-07T03:37:03;65.25;;;24.42;;
67092;SDS011;54011;50.772;7.730;2022-12-07T03:39:43;48.45;;;19.08;;
67092;SDS011;54011;50.772;7.730;2022-12-07T03:42:15;58.67;;;23.75;;
67092;SDS011;54011;50.772;7.730;2022-12-07T03:44:42;64.85;;;26.48;;
67092;SDS011;54011;50.772;7.730;2022-12-07T03:47:13;46.75;;;20.38;;
67092;SDS011;54011;50.772;7.730;2022-12-07T03:49:48;61.38;;;25.23;;
67092;SDS011;54011;50.772;7.730;2022-12-07T03:52:23;35.55;;;15.15;;
67092;SDS011;54011;50.772;7.730;2022-12-07T03:57:31;40.78;;;18.60;;
67092;SDS011;54011;50.772;7.730;2022-12-07T03:59:59;31.88;;;12.10;;
67092;SDS011;54011;50.772;7.730;2022-12-07T04:02:37;56.72;;;24.25;;
67092;SDS011;54011;50.772;7.730;2022-12-07T04:05:05;50.08;;;20.45;;
67092;SDS011;54011;50.772;7.730;2022-12-07T04:07:31;60.22;;;24.92;;
67092;SDS011;54011;50.772;7.730;2022-12-07T04:10:01;34.90;;;16.15;;
67092;SDS011;54011;50.772;7.730;2022-12-07T04:12:27;46.58;;;19.35;;
67092;SDS011;54011;50.772;7.730;2022-12-07T04:14:52;47.60;;;21.38;;
67092;SDS011;54011;50.772;7.730;2022-12-07T04:17:18;58.05;;;23.15;;
67092;SDS011;54011;50.772;7.730;2022-12-07T04:19:49;52.15;;;19.13;;
67092;SDS011;54011;50.772;7.730;2022-12-07T04:22:15;54.00;;;22.50;;
67092;SDS011;54011;50.772;7.730;2022-12-07T04:24:40;32.40;;;14.20;;
67092;SDS011;54011;50.772;7.730;2022-12-07T04:27:06;35.33;;;15.30;;
67092;SDS011;54011;50.772;7.730;2022-12-07T04:29:34;34.83;;;14.65;;
67092;SDS011;54011;50.772;7.730;2022-12-07T04:32:00;47.65;;;21.65;;
67092;SDS011;54011;50.772;7.730;2022-12-07T04:34:25;48.13;;;21.35;;
67092;SDS011;54011;50.772;7.730;2022-12-07T04:36:51;24.15;;;10.48;;
67092;SDS011;54011;50.772;7.730;2022-12-07T04:39:24;34.03;;;15.45;;
67092;SDS011;54011;50.772;7.730;2022-12-07T04:41:52;49.17;;;21.45;;
67092;SDS011;54011;50.772;7.730;2022-12-07T04:44:18;49.95;;;21.88;;
67092;SDS011;54011;50.772;7.730;2022-12-07T04:46:45;60.88;;;23.45;;
67092;SDS011;54011;50.772;7.730;2022-12-07T04:49:11;49.55;;;18.23;;
67092;SDS011;54011;50.772;7.730;2022-12-07T04:51:37;38.83;;;16.48;;
67092;SDS011;54011;50.772;7.730;2022-12-07T04:54:02;42.65;;;17.67;;
67092;SDS011;54011;50.772;7.730;2022-12-07T04:56:28;60.17;;;24.92;;
67092;SDS011;54011;50.772;7.730;2022-12-07T04:58:55;63.97;;;26.33;;
67092;SDS011;54011;50.772;7.730;2022-12-07T05:01:21;39.55;;;16.40;;
67092;SDS011;54011;50.772;7.730;2022-12-07T05:03:47;54.80;;;22.10;;
67092;SDS011;54011;50.772;7.730;2022-12-07T05:06:12;25.80;;;12.20;;
67092;SDS011;54011;50.772;7.730;2022-12-07T05:08:38;34.17;;;15.57;;
67092;SDS011;54011;50.772;7.730;2022-12-07T05:11:05;29.73;;;14.18;;
67092;SDS011;54011;50.772;7.730;2022-12-07T05:13:32;66.70;;;24.55;;
67092;SDS011;54011;50.772;7.730;2022-12-07T05:15:58;48.80;;;21.02;;
67092;SDS011;54011;50.772;7.730;2022-12-07T05:18:25;62.92;;;24.75;;
67092;SDS011;54011;50.772;7.730;2022-12-07T05:20:50;66.45;;;25.00;;
67092;SDS011;54011;50.772;7.730;2022-12-07T05:23:17;65.57;;;26.65;;
67092;SDS011;54011;50.772;7.730;2022-12-07T05:25:43;64.13;;;26.27;;
67092;SDS011;54011;50.772;7.730;2022-12-07T05:28:11;29.98;;;13.32;;
67092;SDS011;54011;50.772;7.730;2022-12-07T05:30:40;40.22;;;17.05;;
67092;SDS011;54011;50.772;7.730;2022-12-07T05:33:05;38.78;;;15.88;;
67092;SDS011;54011;50.772;7.730;2022-12-07T05:35:31;46.53;;;21.30;;
67092;SDS011;54011;50.772;7.730;2022-12-07T05:37:56;56.55;;;24.38;;
67092;SDS011;54011;50.772;7.730;2022-12-07T05:40:23;51.67;;;17.10;;
67092;SDS011;54011;50.772;7.730;2022-12-07T05:42:52;49.13;;;22.33;;
67092;SDS011;54011;50.772;7.730;2022-12-07T05:45:17;51.10;;;21.38;;
67092;SDS011;54011;50.772;7.730;2022-12-07T05:47:43;55.15;;;21.17;;
67092;SDS011;54011;50.772;7.730;2022-12-07T05:50:09;46.83;;;21.30;;
67092;SDS011;54011;50.772;7.730;2022-12-07T05:52:34;47.25;;;20.15;;
67092;SDS011;54011;50.772;7.730;2022-12-07T05:55:00;43.53;;;19.65;;
67092;SDS011;54011;50.772;7.730;2022-12-07T05:57:25;54.47;;;21.50;;
67092;SDS011;54011;50.772;7.730;2022-12-07T05:59:52;38.28;;;17.52;;
67092;SDS011;54011;50.772;7.730;2022-12-07T06:02:17;43.60;;;18.08;;
67092;SDS011;54011;50.772;7.730;2022-12-07T06:04:44;41.72;;;19.63;;
67092;SDS011;54011;50.772;7.730;2022-12-07T06:07:11;37.72;;;17.20;;
67092;SDS011;54011;50.772;7.730;2022-12-07T06:09:38;35.65;;;16.30;;
67092;SDS011;54011;50.772;7.730;2022-12-07T06:12:05;24.42;;;12.05;;
67092;SDS011;54011;50.772;7.730;2022-12-07T06:14:52;43.78;;;18.13;;
67092;SDS011;54011;50.772;7.730;2022-12-07T06:17:17;29.30;;;13.57;;
67092;SDS011;54011;50.772;7.730;2022-12-07T06:19:43;34.13;;;16.45;;
67092;SDS011;54011;50.772;7.730;2022-12-07T06:22:09;41.78;;;17.92;;
67092;SDS011;54011;50.772;7.730;2022-12-07T06:24:36;32.10;;;15.02;;
67092;SDS011;54011;50.772;7.730;2022-12-07T06:27:02;43.60;;;19.52;;
67092;SDS011;54011;50.772;7.730;2022-12-07T06:29:28;36.60;;;16.05;;
67092;SDS011;54011;50.772;7.730;2022-12-07T06:31:54;38.75;;;16.50;;
67092;SDS011;54011;50.772;7.730;2022-12-07T06:34:23;39.08;;;18.00;;
67092;SDS011;54011;50.772;7.730;2022-12-07T06:36:49;27.83;;;12.45;;
67092;SDS011;54011;50.772;7.730;2022-12-07T06:39:22;38.85;;;17.67;;
67092;SDS011;54011;50.772;7.730;2022-12-07T06:41:51;32.33;;;15.13;;
67092;SDS011;54011;50.772;7.730;2022-12-07T06:44:17;37.90;;;15.75;;
67092;SDS011;54011;50.772;7.730;2022-12-07T06:46:43;31.20;;;15.10;;
67092;SDS011;54011;50.772;7.730;2022-12-07T06:49:09;39.95;;;17.38;;
67092;SDS011;54011;50.772;7.730;2022-12-07T06:51:35;43.97;;;17.73;;
67092;SDS011;54011;50.772;7.730;2022-12-07T06:54:02;37.92;;;16.17;;
67092;SDS011;54011;50.772;7.730;2022-12-07T06:56:28;36.92;;;17.30;;
67092;SDS011;54011;50.772;7.730;2022-12-07T06:58:54;29.65;;;13.00;;
67092;SDS011;54011;50.772;7.730;2022-12-07T07:01:19;28.27;;;13.43;;
67092;SDS011;54011;50.772;7.730;2022-12-07T07:03:45;15.70;;;7.70;;
67092;SDS011;54011;50.772;7.730;2022-12-07T07:06:11;33.03;;;14.20;;
67092;SDS011;54011;50.772;7.730;2022-12-07T07:08:41;28.30;;;12.82;;
67092;SDS011;54011;50.772;7.730;2022-12-07T07:11:07;27.70;;;13.27;;
67092;SDS011;54011;50.772;7.730;2022-12-07T07:13:33;25.73;;;12.55;;
67092;SDS011;54011;50.772;7.730;2022-12-07T07:15:59;29.38;;;12.35;;
67092;SDS011;54011;50.772;7.730;2022-12-07T07:18:25;28.92;;;15.00;;
67092;SDS011;54011;50.772;7.730;2022-12-07T07:20:51;30.55;;;13.82;;
67092;SDS011;54011;50.772;7.730;2022-12-07T07:23:17;29.33;;;13.38;;
67092;SDS011;54011;50.772;7.730;2022-12-07T07:25:44;29.80;;;13.73;;
67092;SDS011;54011;50.772;7.730;2022-12-07T07:28:09;31.55;;;14.43;;
67092;SDS011;54011;50.772;7.730;2022-12-07T07:30:37;31.98;;;13.35;;
67092;SDS011;54011;50.772;7.730;2022-12-07T07:33:03;14.88;;;4.95;;
67092;SDS011;54011;50.772;7.730;2022-12-07T07:35:30;26.38;;;12.05;;
67092;SDS011;54011;50.772;7.730;2022-12-07T07:37:56;16.15;;;6.68;;
67092;SDS011;54011;50.772;7.730;2022-12-07T07:40:22;30.38;;;12.35;;
67092;SDS011;54011;50.772;7.730;2022-12-07T07:42:48;29.27;;;12.32;;
67092;SDS011;54011;50.772;7.730;2022-12-07T07:45:16;29.75;;;13.25;;
67092;SDS011;54011;50.772;7.730;2022-12-07T07:47:44;24.58;;;12.05;;
67092;SDS011;54011;50.772;7.730;2022-12-07T07:50:09;25.33;;;11.98;;
67092;SDS011;54011;50.772;7.730;2022-12-07T07:52:35;19.25;;;9.88;;
67092;SDS011;54011;50.772;7.730;2022-12-07T07:55:00;22.88;;;11.40;;
67092;SDS011;54011;50.772;7.730;2022-12-07T07:57:27;28.92;;;12.35;;
67092;SDS011;54011;50.772;7.730;2022-12-07T07:59:52;22.92;;;9.77;;
67092;SDS011;54011;50.772;7.730;2022-12-07T08:02:18;16.38;;;7.47;;
67092;SDS011;54011;50.772;7.730;2022-12-07T08:04:45;32.00;;;12.43;;
67092;SDS011;54011;50.772;7.730;2022-12-07T08:07:12;22.45;;;10.20;;
67092;SDS011;54011;50.772;7.730;2022-12-07T08:09:38;31.27;;;12.57;;
67092;SDS011;54011;50.772;7.730;2022-12-07T08:12:04;29.38;;;14.05;;
67092;SDS011;54011;50.772;7.730;2022-12-07T08:14:31;34.47;;;13.63;;
67092;SDS011;54011;50.772;7.730;2022-12-07T08:16:57;29.20;;;14.07;;
67092;SDS011;54011;50.772;7.730;2022-12-07T08:19:23;13.65;;;7.55;;
67092;SDS011;54011;50.772;7.730;2022-12-07T08:21:49;25.58;;;10.95;;
67092;SDS011;54011;50.772;7.730;2022-12-07T08:24:15;24.58;;;9.85;;
67092;SDS011;54011;50.772;7.730;2022-12-07T08:26:41;31.40;;;15.48;;
67092;SDS011;54011;50.772;7.730;2022-12-07T08:29:11;22.37;;;11.60;;
67092;SDS011;54011;50.772;7.730;2022-12-07T08:31:36;25.83;;;11.48;;
67092;SDS011;54011;50.772;7.730;2022-12-07T08:34:03;35.95;;;14.70;;
67092;SDS011;54011;50.772;7.730;2022-12-07T08:36:29;38.25;;;15.85;;
67092;SDS011;54011;50.772;7.730;2022-12-07T08:38:55;35.08;;;14.93;;
67092;SDS011;54011;50.772;7.730;2022-12-07T08:41:22;31.85;;;13.80;;
67092;SDS011;54011;50.772;7.730;2022-12-07T08:43:47;40.83;;;14.65;;
67092;SDS011;54011;50.772;7.730;2022-12-07T08:46:21;27.75;;;12.48;;
67092;SDS011;54011;50.772;7.730;2022-12-07T08:48:56;32.92;;;12.98;;
67092;SDS011;54011;50.772;7.730;2022-12-07T08:51:26;38.00;;;17.08;;
67092;SDS011;54011;50.772;7.730;2022-12-07T08:53:53;35.83;;;14.80;;
67092;SDS011;54011;50.772;7.730;2022-12-07T08:56:20;38.17;;;17.83;;
67092;SDS011;54011;50.772;7.730;2022-12-07T08:58:46;40.03;;;15.75;;
67092;SDS011;54011;50.772;7.730;2022-12-07T09:01:12;33.25;;;15.68;;
67092;SDS011;54011;50.772;7.730;2022-12-07T09:03:38;20.13;;;8.55;;
67092;SDS011;54011;50.772;7.730;2022-12-07T09:06:03;30.05;;;14.77;;
67092;SDS011;54011;50.772;7.730;2022-12-07T09:08:35;33.90;;;14.27;;
67092;SDS011;54011;50.772;7.730;2022-12-07T09:11:05;21.73;;;9.65;;
67092;SDS011;54011;50.772;7.730;2022-12-07T09:13:30;18.45;;;9.85;;
67092;SDS011;54011;50.772;7.730;2022-12-07T09:15:56;15.80;;;7.80;;
67092;SDS011;54011;50.772;7.730;2022-12-07T09:18:22;22.90;;;10.38;;
67092;SDS011;54011;50.772;7.730;2022-12-07T09:20:49;35.60;;;14.63;;
67092;SDS011;54011;50.772;7.730;2022-12-07T09:23:15;26.13;;;10.45;;
67092;SDS011;54011;50.772;7.730;2022-12-07T09:25:40;25.73;;;11.98;;
67092;SDS011;54011;50.772;7.730;2022-12-07T09:28:06;27.88;;;11.43;;
67092;SDS011;54011;50.772;7.730;2022-12-07T09:30:31;29.27;;;13.85;;
67092;SDS011;54011;50.772;7.730;2022-12-07T09:32:59;21.63;;;10.05;;
67092;SDS011;54011;50.772;7.730;2022-12-07T09:35:24;31.92;;;14.60;;
67092;SDS011;54011;50.772;7.730;2022-12-07T09:37:51;29.73;;;13.50;;
67092;SDS011;54011;50.772;7.730;2022-12-07T09:40:17;32.30;;;13.55;;
67092;SDS011;54011;50.772;7.730;2022-12-07T09:42:47;12.98;;;6.90;;
67092;SDS011;54011;50.772;7.730;2022-12-07T09:45:16;29.48;;;12.88;;
67092;SDS011;54011;50.772;7.730;2022-12-07T09:47:46;14.82;;;7.65;;
67092;SDS011;54011;50.772;7.730;2022-12-07T09:50:13;32.15;;;14.70;;
67092;SDS011;54011;50.772;7.730;2022-12-07T09:52:40;28.45;;;13.07;;
67092;SDS011;54011;50.772;7.730;2022-12-07T09:55:10;24.90;;;10.35;;
67092;SDS011;54011;50.772;7.730;2022-12-07T09:57:38;19.00;;;8.52;;
67092;SDS011;54011;50.772;7.730;2022-12-07T10:00:10;13.60;;;6.55;;
67092;SDS011;54011;50.772;7.730;2022-12-07T10:02:41;14.32;;;6.63;;
67092;SDS011;54011;50.772;7.730;2022-12-07T10:05:18;14.63;;;7.07;;
67092;SDS011;54011;50.772;7.730;2022-12-07T10:07:50;11.10;;;4.53;;
67092;SDS011;54011;50.772;7.730;2022-12-07T10:10:23;10.13;;;4.32;;
67092;SDS011;54011;50.772;7.730;2022-12-07T10:12:53;11.95;;;5.15;;
67092;SDS011;54011;50.772;7.730;2022-12-07T10:15:20;11.57;;;5.80;;
67092;SDS011;54011;50.772;7.730;2022-12-07T10:17:50;11.40;;;6.35;;
67092;SDS011;54011;50.772;7.730;2022-12-07T10:20:26;14.18;;;6.43;;
67092;SDS011;54011;50.772;7.730;2022-12-07T10:25:39;15.48;;;8.50;;
67092;SDS011;54011;50.772;7.730;2022-12-07T10:28:16;17.90;;;8.30;;
67092;SDS011;54011;50.772;7.730;2022-12-07T10:31:17;21.20;;;9.82;;
67092;SDS011;54011;50.772;7.730;2022-12-07T10:33:55;19.20;;;10.63;;
67092;SDS011;54011;50.772;7.730;2022-12-07T10:36:43;17.83;;;8.63;;
67092;SDS011;54011;50.772;7.730;2022-12-07T10:41:59;21.60;;;10.77;;
67092;SDS011;54011;50.772;7.730;2022-12-07T10:44:29;22.50;;;11.10;;
67092;SDS011;54011;50.772;7.730;2022-12-07T11:06:51;20.90;;;10.13;;
67092;SDS011;54011;50.772;7.730;2022-12-07T11:09:46;18.20;;;10.30;;
67092;SDS011;54011;50.772;7.730;2022-12-07T11:17:55;27.27;;;12.82;;
67092;SDS011;54011;50.772;7.730;2022-12-07T11:31:53;15.85;;;6.60;;
67092;SDS011;54011;50.772;7.730;2022-12-07T11:34:46;18.48;;;8.90;;
67092;SDS011;54011;50.772;7.730;2022-12-07T11:37:16;16.83;;;9.30;;
67092;SDS011;54011;50.772;7.730;2022-12-07T11:39:53;12.38;;;7.80;;
67092;SDS011;54011;50.772;7.730;2022-12-07T11:42:26;16.92;;;8.85;;
67092;SDS011;54011;50.772;7.730;2022-12-07T11:45:02;4.60;;;2.83;;
67092;SDS011;54011;50.772;7.730;2022-12-07T11:47:48;19.67;;;5.93;;
67092;SDS011;54011;50.772;7.730;2022-12-07T11:55:41;25.15;;;10.15;;
67092;SDS011;54011;50.772;7.730;2022-12-07T12:00:55;20.05;;;9.55;;
67092;SDS011;54011;50.772;7.730;2022-12-07T12:03:36;16.20;;;6.72;;
67092;SDS011;54011;50.772;7.730;2022-12-07T12:06:08;20.40;;;8.05;;
67092;SDS011;54011;50.772;7.730;2022-12-07T12:08:36;15.55;;;7.18;;
67092;SDS011;54011;50.772;7.730;2022-12-07T12:14:10;10.57;;;5.32;;
67092;SDS011;54011;50.772;7.730;2022-12-07T12:22:40;18.00;;;7.40;;
67092;SDS011;54011;50.772;7.730;2022-12-07T12:25:26;17.70;;;5.97;;
67092;SDS011;54011;50.772;7.730;2022-12-07T12:27:55;7.07;;;3.78;;
67092;SDS011;54011;50.772;7.730;2022-12-07T12:30:32;9.80;;;5.10;;
67092;SDS011;54011;50.772;7.730;2022-12-07T12:33:03;15.93;;;6.00;;
67092;SDS011;54011;50.772;7.730;2022-12-07T12:35:42;9.20;;;3.63;;
67092;SDS011;54011;50.772;7.730;2022-12-07T12:38:24;12.93;;;5.38;;
67092;SDS011;54011;50.772;7.730;2022-12-07T12:40:55;13.40;;;6.15;;
67092;SDS011;54011;50.772;7.730;2022-12-07T12:51:42;6.97;;;2.53;;
67092;SDS011;54011;50.772;7.730;2022-12-07T12:54:30;10.82;;;4.60;;
67092;SDS011;54011;50.772;7.730;2022-12-07T13:02:19;9.25;;;2.58;;
67092;SDS011;54011;50.772;7.730;2022-12-07T13:04:57;4.57;;;1.73;;
67092;SDS011;54011;50.772;7.730;2022-12-07T13:15:45;8.57;;;3.63;;
67092;SDS011;54011;50.772;7.730;2022-12-07T13:18:40;5.53;;;1.90;;
67092;SDS011;54011;50.772;7.730;2022-12-07T13:26:17;11.63;;;2.42;;
67092;SDS011;54011;50.772;7.730;2022-12-07T13:28:46;6.22;;;2.58;;
67092;SDS011;54011;50.772;7.730;2022-12-07T13:31:19;7.78;;;2.47;;
67092;SDS011;54011;50.772;7.730;2022-12-07T13:33:58;5.22;;;2.13;;
67092;SDS011;54011;50.772;7.730;2022-12-07T13:36:45;6.82;;;2.50;;
67092;SDS011;54011;50.772;7.730;2022-12-07T13:39:16;5.32;;;2.63;;
67092;SDS011;54011;50.772;7.730;2022-12-07T13:41:44;8.68;;;3.30;;
67092;SDS011;54011;50.772;7.730;2022-12-07T13:44:20;8.68;;;3.33;;
67092;SDS011;54011;50.772;7.730;2022-12-07T13:46:54;5.68;;;2.60;;
67092;SDS011;54011;50.772;7.730;2022-12-07T13:49:32;6.65;;;2.97;;
67092;SDS011;54011;50.772;7.730;2022-12-07T13:52:13;7.82;;;3.90;;
67092;SDS011;54011;50.772;7.730;2022-12-07T13:57:33;11.07;;;4.15;;
67092;SDS011;54011;50.772;7.730;2022-12-07T14:00:01;7.47;;;4.00;;
67092;SDS011;54011;50.772;7.730;2022-12-07T14:05:26;11.52;;;4.90;;
67092;SDS011;54011;50.772;7.730;2022-12-07T14:07:57;15.85;;;4.85;;
67092;SDS011;54011;50.772;7.730;2022-12-07T14:10:32;11.98;;;5.32;;
67092;SDS011;54011;50.772;7.730;2022-12-07T14:13:21;9.98;;;4.55;;
67092;SDS011;54011;50.772;7.730;2022-12-07T14:16:02;11.35;;;4.75;;
67092;SDS011;54011;50.772;7.730;2022-12-07T14:18:38;10.40;;;4.80;;
67092;SDS011;54011;50.772;7.730;2022-12-07T14:21:05;11.40;;;4.85;;
67092;SDS011;54011;50.772;7.730;2022-12-07T14:23:42;10.13;;;5.03;;
67092;SDS011;54011;50.772;7.730;2022-12-07T14:26:10;15.68;;;5.88;;
67092;SDS011;54011;50.772;7.730;2022-12-07T14:28:38;13.15;;;4.97;;
67092;SDS011;54011;50.772;7.730;2022-12-07T14:31:15;12.88;;;5.30;;
67092;SDS011;54011;50.772;7.730;2022-12-07T14:33:44;16.17;;;5.60;;
67092;SDS011;54011;50.772;7.730;2022-12-07T14:36:10;14.27;;;4.63;;
67092;SDS011;54011;50.772;7.730;2022-12-07T14:38:37;8.30;;;4.35;;
67092;SDS011;54011;50.772;7.730;2022-12-07T14:41:03;11.30;;;5.57;;
67092;SDS011;54011;50.772;7.730;2022-12-07T14:43:58;12.73;;;4.28;;
67092;SDS011;54011;50.772;7.730;2022-12-07T14:46:25;15.43;;;5.60;;
67092;SDS011;54011;50.772;7.730;2022-12-07T14:48:50;12.80;;;5.70;;
67092;SDS011;54011;50.772;7.730;2022-12-07T14:51:15;11.20;;;5.35;;
67092;SDS011;54011;50.772;7.730;2022-12-07T14:53:46;11.98;;;5.57;;
67092;SDS011;54011;50.772;7.730;2022-12-07T14:56:16;12.18;;;5.70;;
67092;SDS011;54011;50.772;7.730;2022-12-07T14:58:41;10.68;;;4.63;;
67092;SDS011;54011;50.772;7.730;2022-12-07T15:01:07;17.02;;;5.65;;
67092;SDS011;54011;50.772;7.730;2022-12-07T15:03:34;14.18;;;5.85;;
67092;SDS011;54011;50.772;7.730;2022-12-07T15:06:00;14.50;;;6.15;;
67092;SDS011;54011;50.772;7.730;2022-12-07T15:08:26;10.57;;;5.63;;
67092;SDS011;54011;50.772;7.730;2022-12-07T15:10:52;9.32;;;5.03;;
67092;SDS011;54011;50.772;7.730;2022-12-07T15:13:17;14.85;;;5.20;;
67092;SDS011;54011;50.772;7.730;2022-12-07T15:16:01;12.02;;;5.65;;
67092;SDS011;54011;50.772;7.730;2022-12-07T15:18:27;13.95;;;7.03;;
67092;SDS011;54011;50.772;7.730;2022-12-07T15:20:53;16.80;;;7.63;;
67092;SDS011;54011;50.772;7.730;2022-12-07T15:23:19;12.82;;;6.57;;
67092;SDS011;54011;50.772;7.730;2022-12-07T15:25:46;12.52;;;6.25;;
67092;SDS011;54011;50.772;7.730;2022-12-07T15:28:13;85.55;;;44.65;;
67092;SDS011;54011;50.772;7.730;2022-12-07T15:30:40;16.65;;;8.07;;
67092;SDS011;54011;50.772;7.730;2022-12-07T15:33:08;19.65;;;7.45;;
67092;SDS011;54011;50.772;7.730;2022-12-07T15:35:39;18.92;;;8.18;;
67092;SDS011;54011;50.772;7.730;2022-12-07T15:38:06;19.60;;;9.02;;
67092;SDS011;54011;50.772;7.730;2022-12-07T15:40:33;18.58;;;7.45;;
67092;SDS011;54011;50.772;7.730;2022-12-07T15:43:02;21.90;;;9.95;;
67092;SDS011;54011;50.772;7.730;2022-12-07T15:45:28;18.75;;;6.90;;
67092;SDS011;54011;50.772;7.730;2022-12-07T15:47:53;26.50;;;7.57;;
67092;SDS011;54011;50.772;7.730;2022-12-07T15:50:20;18.13;;;7.65;;
67092;SDS011;54011;50.772;7.730;2022-12-07T15:52:48;21.50;;;9.38;;
67092;SDS011;54011;50.772;7.730;2022-12-07T15:55:14;21.23;;;9.98;;
67092;SDS011;54011;50.772;7.730;2022-12-07T15:57:40;20.63;;;10.52;;
67092;SDS011;54011;50.772;7.730;2022-12-07T16:00:07;21.98;;;9.80;;
67092;SDS011;54011;50.772;7.730;2022-12-07T16:02:34;17.92;;;7.68;;
67092;SDS011;54011;50.772;7.730;2022-12-07T16:05:01;24.52;;;11.45;;
67092;SDS011;54011;50.772;7.730;2022-12-07T16:07:30;22.33;;;10.80;;
67092;SDS011;54011;50.772;7.730;2022-12-07T16:09:55;22.55;;;10.90;;
67092;SDS011;54011;50.772;7.730;2022-12-07T16:12:21;22.35;;;11.60;;
67092;SDS011;54011;50.772;7.730;2022-12-07T16:14:47;16.95;;;8.60;;
67092;SDS011;54011;50.772;7.730;2022-12-07T16:17:15;23.08;;;10.05;;
67092;SDS011;54011;50.772;7.730;2022-12-07T16:19:42;20.75;;;10.13;;
67092;SDS011;54011;50.772;7.730;2022-12-07T16:22:07;27.05;;;10.77;;
67092;SDS011;54011;50.772;7.730;2022-12-07T16:24:33;32.25;;;11.75;;
67092;SDS011;54011;50.772;7.730;2022-12-07T16:26:58;24.17;;;11.70;;
67092;SDS011;54011;50.772;7.730;2022-12-07T16:29:24;23.05;;;11.50;;
67092;SDS011;54011;50.772;7.730;2022-12-07T16:31:50;28.23;;;12.35;;
67092;SDS011;54011;50.772;7.730;2022-12-07T16:34:16;29.17;;;12.77;;
67092;SDS011;54011;50.772;7.730;2022-12-07T16:36:44;28.23;;;12.65;;
67092;SDS011;54011;50.772;7.730;2022-12-07T16:39:10;30.60;;;12.80;;
67092;SDS011;54011;50.772;7.730;2022-12-07T16:41:38;24.00;;;9.57;;
67092;SDS011;54011;50.772;7.730;2022-12-07T16:44:04;23.48;;;11.60;;
67092;SDS011;54011;50.772;7.730;2022-12-07T16:46:32;20.17;;;10.65;;
67092;SDS011;54011;50.772;7.730;2022-12-07T16:49:01;25.20;;;12.38;;
67092;SDS011;54011;50.772;7.730;2022-12-07T16:51:27;26.55;;;14.20;;
67092;SDS011;54011;50.772;7.730;2022-12-07T16:53:54;22.08;;;10.13;;